ADDS METAR Data INFO
IDs: Format: Raw Decoded Include TAF

Data at: 0213 UTC 17 Aug 2018

PAGA 170156Z AUTO 24009KT 10SM SCT042 14/08 A2988 RMK AO2 SLP118 T01440078
PAGA 170056Z AUTO 25011KT 10SM SCT034 14/07 A2988 RMK AO2 SLP119 T01440072
PAGA 162356Z AUTO 24012KT 10SM CLR 14/08 A2989 RMK AO2 SLP121 T01440078 10144 20106 57004
PAGA 162256Z AUTO 25012KT 10SM CLR 14/07 A2989 RMK AO2 SLP123 T01440072
PAGA 162156Z AUTO 23010KT 10SM CLR 14/06 A2989 RMK AO2 SLP124 T01390061
PAGA 162056Z AUTO 24010KT 10SM CLR 13/07 A2990 RMK AO2 SLP125 T01330072 58004
PAGA 161956Z AUTO 25009KT 10SM CLR 13/07 A2990 RMK AO2 SLP128 T01330072
PAGA 161856Z AUTO 24008KT 10SM FEW060 12/08 A2991 RMK AO2 SLP129 T01170078
PAGA 161756Z AUTO 24005KT 10SM SCT070 11/09 A2991 RMK AO2 SLP129 T01060089 10106 20083 56002
PAGA 161656Z AUTO 22004KT 10SM OVC070 10/08 A2991 RMK AO2 SLP130 T01000083
PAGA 161556Z AUTO 17004KT 10SM OVC070 09/08 A2991 RMK AO2 SLP129 T00940078
PAGA 161456Z AUTO 00000KT 10SM OVC060 08/07 A2992 RMK AO2 SLP132 T00830067 56003
PAGA 161356Z AUTO 00000KT 10SM OVC060 09/07 A2992 RMK AO2 SLP132 T00940067
PAGA 161256Z AUTO 18004KT 10SM OVC060 09/07 A2992 RMK AO2 SLP134 T00940067
PAGA 161156Z AUTO 00000KT 10SM OVC070 09/07 A2993 RMK AO2 RAB11E39 SLP135 P0000 60000 T00940067 10117 20083 58002
PAGA 161056Z AUTO 00000KT 10SM OVC075 09/06 A2993 RMK AO2 SLP137 T00940061
PAGA 160956Z AUTO 00000KT 10SM BKN095 09/06 A2993 RMK AO2 SLP137 T00940056
PAGA 160856Z AUTO 00000KT 10SM BKN085 09/07 A2993 RMK AO2 SLP137 T00940067 401500078 53007
PAGA 160756Z AUTO 34003KT 10SM FEW044 SCT050 BKN095 11/06 A2992 RMK AO2 SLP135 T01060061
PAGA 160656Z AUTO 00000KT 10SM BKN048 11/07 A2992 RMK AO2 SLP132 T01060067
PAGA 160556Z AUTO 00000KT 10SM SCT047 OVC070 12/06 A2991 RMK AO2 SLP130 T01170056 10150 20117 53004
PAGA 160456Z AUTO 34005KT 10SM FEW035 BKN042 OVC070 13/04 A2991 RMK AO2 SLP130 T01280044
PAGA 160356Z AUTO 25007KT 10SM OVC070 14/08 A2990 RMK AO2 SLP125 T01440078
PAGA 160256Z AUTO 24010KT 10SM OVC065 14/08 A2990 RMK AO2 SLP125 T01440078 56006
PAGA 160156Z AUTO 22007KT 10SM OVC060 14/07 A2990 RMK AO2 SLP127 T01440072
PAGA 160056Z AUTO 25010KT 10SM OVC060 14/07 A2991 RMK AO2 SLP128 T01440067
PAGA 152356Z AUTO 24006KT 10SM OVC055 14/06 A2991 RMK AO2 SLP131 T01440061 10150 20106 58001
PAGA 152256Z AUTO 21004KT 10SM OVC055 15/06 A2992 RMK AO2 SLP132 T01500056
PAGA 152156Z AUTO VRB05KT 10SM OVC055 13/06 A2992 RMK AO2 SLP133 T01330061
PAGA 152056Z AUTO 28005KT 10SM CLR 14/05 A2992 RMK AO2 SLP132 T01390050 51003
PAGA 151956Z AUTO 25004KT 10SM CLR 13/07 A2992 RMK AO2 SLP132 T01330067
PAGA 151856Z AUTO 25006KT 10SM CLR 12/07 A2992 RMK AO2 SLP131 T01170067
PAGA 151756Z AUTO 25003KT 10SM CLR 11/07 A2991 RMK AO2 SLP130 T01060067 10106 20078 51009
PAGA 151656Z AUTO 00000KT 10SM OVC065 08/06 A2990 RMK AO2 SLP127 T00830061
PAGA 151556Z AUTO 00000KT 10SM OVC065 08/06 A2989 RMK AO2 SLP123 T00780061